createdAt,value
2018-11-23T00:02:20.331Z,95625.70
2018-11-23T00:04:48.205Z,95621.92
2018-11-23T00:07:13.660Z,95621.70
2018-11-23T00:09:40.297Z,95619.14
2018-11-23T00:12:06.991Z,95629.23
2018-11-23T00:14:33.623Z,95624.09
2018-11-23T00:17:00.267Z,95629.51
2018-11-23T00:19:26.904Z,95625.73
2018-11-23T00:21:53.553Z,95629.34
2018-11-23T00:24:20.210Z,95632.28
2018-11-23T00:26:46.846Z,95636.86
2018-11-23T00:29:13.487Z,95638.98
2018-11-23T00:31:40.174Z,95641.55
2018-11-23T00:34:06.818Z,95640.41
2018-11-23T00:36:33.461Z,95648.45
2018-11-23T00:39:00.095Z,95644.66
2018-11-23T00:41:26.755Z,95648.56
2018-11-23T00:43:53.442Z,95652.06
2018-11-23T00:46:20.077Z,95647.13
2018-11-23T00:48:46.725Z,95647.62
2018-11-23T00:51:13.361Z,95648.63
2018-11-23T00:53:40.016Z,95655.69
2018-11-23T00:56:06.732Z,95658.96
2018-11-23T00:58:33.369Z,95661.77
2018-11-23T01:01:00.020Z,95660.10
2018-11-23T01:03:26.661Z,95662.13
2018-11-23T01:05:53.352Z,95668.67
2018-11-23T01:08:20.036Z,95671.84
2018-11-23T01:10:46.677Z,95668.30
2018-11-23T01:13:13.376Z,95668.02
2018-11-23T01:15:40.014Z,95669.30
2018-11-23T01:18:06.649Z,95665.41
2018-11-23T01:20:33.312Z,95669.20
2018-11-23T01:23:00.001Z,95669.58
2018-11-23T01:25:26.646Z,95670.70
2018-11-23T01:27:53.348Z,95671.73
2018-11-23T01:30:19.981Z,95676.03
2018-11-23T01:32:46.617Z,95675.17
2018-11-23T01:35:13.277Z,95675.80
2018-11-23T01:37:39.918Z,95667.95
2018-11-23T01:40:06.560Z,95667.70
2018-11-23T01:42:33.216Z,95661.03
2018-11-23T01:44:59.864Z,95661.41
2018-11-23T01:47:26.526Z,95656.84
2018-11-23T01:49:53.169Z,95665.17
2018-11-23T01:52:19.817Z,95662.67
2018-11-23T01:54:46.452Z,95667.34
2018-11-23T01:57:13.134Z,95666.86
2018-11-23T01:59:39.782Z,95667.97
2018-11-23T02:02:06.422Z,95671.52
2018-11-23T02:04:33.107Z,95670.41
2018-11-23T02:06:59.752Z,95674.58
2018-11-23T02:09:26.394Z,95672.28
2018-11-23T02:11:53.089Z,95669.52
2018-11-23T02:14:19.724Z,95668.25
2018-11-23T02:16:46.368Z,95667.97
2018-11-23T02:19:13.009Z,95668.89
2018-11-23T02:21:39.658Z,95673.69
2018-11-23T02:24:06.297Z,95678.75
2018-11-23T02:26:32.989Z,95671.18
2018-11-23T02:28:59.626Z,95677.63
2018-11-23T02:31:26.313Z,95670.80
2018-11-23T02:33:52.945Z,95678.49
2018-11-23T02:36:19.589Z,95676.61
2018-11-23T02:38:46.228Z,95677.98
2018-11-23T02:41:12.933Z,95682.66
2018-11-23T02:43:39.572Z,95679.75
2018-11-23T02:46:06.218Z,95684.20
2018-11-23T02:48:32.906Z,95682.28
2018-11-23T02:50:59.538Z,95679.52
2018-11-23T02:53:26.177Z,95683.45
2018-11-23T02:55:52.865Z,95688.25
2018-11-23T02:58:19.502Z,95687.34
2018-11-23T03:00:46.136Z,95690.27
2018-11-23T03:03:12.839Z,95687.72
2018-11-23T03:05:39.469Z,95690.25
2018-11-23T03:08:06.138Z,95687.72
2018-11-23T03:10:32.824Z,95691.02
2018-11-23T03:12:59.470Z,95692.02
2018-11-23T03:15:26.112Z,95690.78
2018-11-23T03:17:52.768Z,95693.20
2018-11-23T03:20:19.459Z,95700.52
2018-11-23T03:22:46.091Z,95700.37
2018-11-23T03:25:12.748Z,95706.19
2018-11-23T03:27:39.457Z,95695.83
2018-11-23T03:30:06.166Z,95708.86
2018-11-23T03:32:32.867Z,95707.34
2018-11-23T03:34:59.506Z,95706.33
2018-11-23T03:37:26.203Z,95708.98
2018-11-23T03:39:52.895Z,95707.85
2018-11-23T03:42:19.534Z,95700.14
2018-11-23T03:44:46.182Z,95703.68
2018-11-23T03:47:12.811Z,95709.36
2018-11-23T03:49:39.505Z,95711.64
2018-11-23T03:52:06.141Z,95701.91
2018-11-23T03:54:32.840Z,95704.42
2018-11-23T03:56:59.481Z,95704.06
2018-11-23T03:59:26.118Z,95706.08
2018-11-23T04:01:52.814Z,95700.77
2018-11-23T04:04:19.453Z,95697.09
2018-11-23T04:06:46.102Z,95698.23
2018-11-23T04:09:12.784Z,95699.02
2018-11-23T04:11:39.469Z,95701.39
2018-11-23T04:14:06.113Z,95705.77
2018-11-23T04:16:32.804Z,95709.73
2018-11-23T04:18:59.452Z,95713.44
2018-11-23T04:21:26.136Z,95708.80
2018-11-23T04:23:52.778Z,95714.86
2018-11-23T04:26:24.615Z,95719.80
2018-11-23T04:28:46.089Z,95717.64
2018-11-23T04:31:12.741Z,95710.72
2018-11-23T04:33:39.377Z,95717.00
2018-11-23T04:36:06.025Z,95716.11
2018-11-23T04:38:32.668Z,95711.95
2018-11-23T04:40:59.321Z,95714.09
2018-11-23T04:43:25.965Z,95707.50
2018-11-23T04:45:52.614Z,95711.27
2018-11-23T04:48:19.314Z,95714.39
2018-11-23T04:50:45.953Z,95714.38
2018-11-23T04:53:12.590Z,95716.52
2018-11-23T04:55:39.290Z,95717.11
2018-11-23T04:58:05.929Z,95719.16
2018-11-23T05:00:32.634Z,95717.63
2018-11-23T05:02:59.274Z,95724.38
2018-11-23T05:05:25.942Z,95730.86
2018-11-23T05:07:52.588Z,95729.35
2018-11-23T05:10:19.225Z,95731.66
2018-11-23T05:12:45.871Z,95732.55
2018-11-23T05:15:12.524Z,95738.98
2018-11-23T05:17:39.159Z,95738.02
2018-11-23T05:20:05.807Z,95742.72
2018-11-23T05:22:32.445Z,95748.37
2018-11-23T05:24:59.084Z,95745.88
2018-11-23T05:27:25.732Z,95746.67
2018-11-23T05:29:52.380Z,95744.11
2018-11-23T05:32:19.191Z,95746.67
2018-11-23T05:34:45.828Z,95746.89
2018-11-23T05:37:12.481Z,95747.48
2018-11-23T05:39:39.123Z,95736.04
2018-11-23T05:42:05.771Z,95750.45
2018-11-23T05:44:32.413Z,95752.61
2018-11-23T05:46:59.049Z,95756.53
2018-11-23T05:49:25.687Z,95765.13
2018-11-23T05:51:52.344Z,95767.47
2018-11-23T05:54:18.974Z,95768.39
2018-11-23T05:56:45.631Z,95764.98
2018-11-23T05:59:12.290Z,95774.07
2018-11-23T06:01:38.927Z,95771.16
2018-11-23T06:04:05.613Z,95777.73
2018-11-23T06:06:33.637Z,95780.52
2018-11-23T06:08:58.935Z,95774.35
2018-11-23T06:11:25.638Z,95781.24
2018-11-23T06:13:52.291Z,95785.31
2018-11-23T06:16:18.936Z,95781.52
2018-11-23T06:18:45.594Z,95785.20
2018-11-23T06:21:12.292Z,95792.06
2018-11-23T06:23:38.949Z,95788.82
2018-11-23T06:26:05.588Z,95791.61
2018-11-23T06:28:32.293Z,95789.71
2018-11-23T06:30:59.008Z,95795.80
2018-11-23T06:33:25.651Z,95805.39
2018-11-23T06:35:52.440Z,95813.38
2018-11-23T06:38:19.094Z,95817.80
2018-11-23T06:40:45.731Z,95818.34
2018-11-23T06:43:12.383Z,95824.71
2018-11-23T06:45:39.030Z,95816.81
2018-11-23T06:48:05.675Z,95836.55
2018-11-23T06:50:32.313Z,95835.41
2018-11-23T06:52:58.974Z,95836.61
2018-11-23T06:55:25.623Z,95836.39
2018-11-23T06:57:52.281Z,95836.03
2018-11-23T07:00:18.971Z,95832.08
2018-11-23T07:02:45.627Z,95798.81
2018-11-23T07:05:12.270Z,95840.21
2018-11-23T07:07:38.957Z,95845.38
2018-11-23T07:10:05.596Z,95839.92
2018-11-23T07:12:32.235Z,95837.64
2018-11-23T07:14:58.938Z,95831.94
2018-11-23T07:17:25.649Z,95833.50
2018-11-23T07:19:52.328Z,95839.41
2018-11-23T07:22:19.024Z,95836.38
2018-11-23T07:24:45.673Z,95843.47
2018-11-23T07:27:12.380Z,95849.47
2018-11-23T07:29:39.069Z,95848.25
2018-11-23T07:32:05.848Z,95850.84
2018-11-23T07:34:32.496Z,95848.61
2018-11-23T07:36:59.142Z,95862.61
2018-11-23T07:39:26.024Z,95864.53
2018-11-23T07:41:52.749Z,95862.30
2018-11-23T07:44:22.223Z,95869.09
2018-11-23T07:46:49.008Z,95871.16
2018-11-23T07:49:15.735Z,95869.13
2018-11-23T07:51:42.450Z,95869.13
2018-11-23T07:54:09.150Z,95866.38
2018-11-23T07:56:36.062Z,95851.44
2018-11-23T07:59:02.766Z,95874.22
2018-11-23T08:01:29.406Z,95875.50
2018-11-23T08:03:56.090Z,95872.34
2018-11-23T08:06:22.726Z,95878.45
2018-11-23T08:08:49.443Z,95883.09
2018-11-23T08:11:16.100Z,95892.71
2018-11-23T08:13:42.758Z,95868.88
2018-11-23T08:16:09.456Z,95891.45
2018-11-23T08:18:36.091Z,95887.67
2018-11-23T08:21:02.849Z,95897.51
2018-11-23T08:23:29.552Z,95906.11
2018-11-23T08:25:56.555Z,95901.47
2018-11-23T08:28:23.197Z,95899.48
2018-11-23T08:30:49.907Z,95901.09
2018-11-23T08:33:16.559Z,95898.78
2018-11-23T08:35:43.727Z,95895.29
2018-11-23T08:38:10.362Z,95903.12
2018-11-23T08:40:37.021Z,95907.13
2018-11-23T08:43:03.730Z,95907.47
2018-11-23T08:45:30.382Z,95903.50
2018-11-23T08:47:57.021Z,95901.94
2018-11-23T08:50:23.676Z,95901.16
2018-11-23T08:52:50.364Z,95900.48
2018-11-23T08:55:18.059Z,95902.77
2018-11-23T09:00:11.202Z,95891.64
2018-11-23T09:02:37.897Z,95891.72
2018-11-23T09:05:04.542Z,95894.13
2018-11-23T09:07:31.250Z,95893.92
2018-11-23T09:09:57.898Z,95890.41
2018-11-23T09:12:24.549Z,95888.78
2018-11-23T09:14:51.194Z,95885.48
2018-11-23T09:17:17.855Z,95881.66
2018-11-23T09:19:44.556Z,95883.91
2018-11-23T09:22:11.386Z,95882.27
2018-11-23T09:24:38.088Z,95879.98
2018-11-23T09:27:04.822Z,95871.98
2018-11-23T09:29:31.481Z,95874.44
2018-11-23T09:31:58.192Z,95880.19
2018-11-23T09:34:25.050Z,95873.45
2018-11-23T09:36:51.792Z,95867.47
2018-11-23T09:39:18.432Z,95874.82
2018-11-23T09:41:45.096Z,95871.66
2018-11-23T09:44:11.792Z,95872.28
2018-11-23T09:46:38.465Z,95873.68
2018-11-23T09:49:05.231Z,95866.25
2018-11-23T09:51:31.880Z,95874.00
2018-11-23T09:53:58.511Z,95878.44
2018-11-23T09:56:25.213Z,95878.99
2018-11-23T09:58:52.948Z,95878.67
2018-11-23T10:01:19.626Z,95881.86
2018-11-23T10:03:46.265Z,95871.34
2018-11-23T10:06:12.963Z,95872.25
2018-11-23T10:08:39.655Z,95874.73
2018-11-23T10:11:06.341Z,95871.06
2018-11-23T10:13:32.992Z,95875.98
2018-11-23T10:15:59.637Z,95868.33
2018-11-23T10:18:26.315Z,95873.34
2018-11-23T10:20:52.998Z,95871.24
2018-11-23T10:23:19.665Z,95873.19
2018-11-23T10:25:46.301Z,95869.96
2018-11-23T10:28:12.946Z,95870.43
2018-11-23T10:30:39.587Z,95865.55
2018-11-23T10:33:06.244Z,95868.83
2018-11-23T10:35:32.891Z,95868.98
2018-11-23T10:37:59.526Z,95857.17
2018-11-23T10:40:26.184Z,95862.19
2018-11-23T10:42:52.939Z,95865.45
2018-11-23T10:45:19.573Z,95866.06
2018-11-23T10:47:46.218Z,95865.39
2018-11-23T11:20:42.621Z,95841.03
2018-11-23T11:23:09.267Z,95841.53
2018-11-23T11:25:38.517Z,95840.63
2018-11-23T11:28:05.207Z,95843.08
2018-11-23T11:30:34.009Z,95841.81
2018-11-23T11:33:00.700Z,95842.84
2018-11-23T11:35:27.349Z,95847.11
2018-11-23T11:37:54.129Z,95838.93
2018-11-23T11:40:20.815Z,95840.02
2018-11-23T11:42:47.443Z,95832.42
2018-11-23T11:45:14.160Z,95838.77
2018-11-23T11:47:40.938Z,95836.23
2018-11-23T11:50:07.697Z,95838.64
2018-11-23T11:52:34.412Z,95832.75
2018-11-23T11:55:01.137Z,95839.59
2018-11-23T11:57:27.989Z,95832.84
2018-11-23T11:59:54.608Z,95836.88
2018-11-23T12:02:21.306Z,95822.17
2018-11-23T12:04:47.969Z,95824.35
2018-11-23T12:07:14.676Z,95820.17
2018-11-23T12:09:41.728Z,95819.19
2018-11-23T12:12:08.696Z,95818.83
2018-11-23T12:14:35.332Z,95825.97
2018-11-23T12:17:02.083Z,95824.85
2018-11-23T12:19:28.760Z,95824.34
2018-11-23T12:21:57.711Z,95827.55
2018-11-23T12:24:24.553Z,95846.00
2018-11-23T12:26:51.249Z,95847.58
2018-11-23T12:29:19.940Z,95847.61
2018-11-23T12:31:46.636Z,95846.86
2018-11-23T12:34:13.333Z,95825.53
2018-11-23T12:36:39.968Z,95845.63
2018-11-23T12:39:06.734Z,95842.70
2018-11-23T12:41:33.441Z,95845.80
2018-11-23T12:44:00.056Z,95841.36
2018-11-23T12:46:26.721Z,95840.22
2018-11-23T12:48:53.392Z,95844.48
2018-11-23T12:51:21.438Z,95834.20
2018-11-23T12:53:48.188Z,95844.25
2018-11-23T12:56:14.896Z,95847.52
2018-11-23T12:58:41.503Z,95843.52
2018-11-23T13:01:08.147Z,95841.08
2018-11-23T13:03:34.893Z,95838.23
2018-11-23T13:06:01.551Z,95842.33
2018-11-23T13:08:28.346Z,95838.48
2018-11-23T13:10:55.014Z,95834.38
2018-11-23T13:13:23.771Z,95842.62
2018-11-23T13:15:50.422Z,95844.44
2018-11-23T13:18:17.074Z,95839.78
2018-11-23T13:20:43.886Z,95841.23
2018-11-23T13:23:10.614Z,95837.67
2018-11-23T13:25:37.352Z,95832.73
2018-11-23T13:28:04.038Z,95837.97
2018-11-23T13:30:31.762Z,95837.09
2018-11-23T13:32:58.459Z,95840.13
2018-11-23T13:35:25.115Z,95829.25
2018-11-23T13:37:51.818Z,95836.70
2018-11-23T13:40:18.507Z,95828.84
2018-11-23T13:42:45.197Z,95827.77
2018-11-23T13:45:11.864Z,95823.23
2018-11-23T13:47:38.590Z,95820.38
2018-11-23T13:50:05.307Z,95828.14
2018-11-23T13:52:31.965Z,95827.81
2018-11-23T13:54:58.738Z,95826.34
2018-11-23T13:57:26.045Z,95829.32
2018-11-23T13:59:52.709Z,95833.36
2018-11-23T14:02:19.375Z,95819.25
2018-11-23T14:04:46.043Z,95822.25
2018-11-23T14:07:13.078Z,95827.36
2018-11-23T14:09:39.721Z,95820.86
2018-11-23T14:12:06.423Z,95821.24
2018-11-23T14:14:33.093Z,95824.50
2018-11-23T14:16:59.784Z,95821.22
2018-11-23T14:19:26.429Z,95812.79
2018-11-23T14:21:53.084Z,95826.41
2018-11-23T14:24:19.736Z,95829.14
2018-11-23T14:26:46.393Z,95830.66
2018-11-23T14:29:13.088Z,95830.30
2018-11-23T14:31:39.752Z,95821.47
2018-11-23T14:34:06.399Z,95822.77
2018-11-23T14:36:33.054Z,95822.55
2018-11-23T14:39:00.167Z,95826.92
2018-11-23T14:41:26.818Z,95823.56
2018-11-23T14:43:53.476Z,95826.13
2018-11-23T14:46:20.132Z,95826.70
2018-11-23T14:48:46.806Z,95828.25
2018-11-23T14:51:13.457Z,95821.31
2018-11-23T14:53:40.129Z,95833.55
2018-11-23T14:56:06.781Z,95834.09
2018-11-23T14:58:33.439Z,95830.53
2018-11-23T15:01:00.113Z,95838.45
2018-11-23T15:03:26.773Z,95835.19
2018-11-23T15:05:53.433Z,95837.66
2018-11-23T15:08:20.080Z,95839.79
2018-11-23T15:10:46.784Z,95842.27
2018-11-23T15:13:13.457Z,95846.80
2018-11-23T15:15:40.088Z,95848.63
2018-11-23T15:18:07.089Z,95847.30
2018-11-23T15:20:33.737Z,95847.45
2018-11-23T15:23:00.373Z,95862.33
2018-11-23T15:25:27.020Z,95859.09
2018-11-23T15:27:53.717Z,95857.09
2018-11-23T15:30:20.380Z,95855.06
2018-11-23T15:32:47.025Z,95850.12
2018-11-23T15:35:13.716Z,95865.11
2018-11-23T15:37:40.357Z,95872.50
2018-11-23T15:40:07.016Z,95877.87
2018-11-23T15:42:33.707Z,95871.19
2018-11-23T15:45:00.382Z,95868.91
2018-11-23T15:47:27.026Z,95872.88
2018-11-23T15:49:53.669Z,95877.78
2018-11-23T15:52:20.322Z,95878.28
2018-11-23T15:54:46.978Z,95873.50
2018-11-23T15:57:13.633Z,95874.12
2018-11-23T15:59:40.282Z,95864.50
2018-11-23T16:02:06.933Z,95866.30
2018-11-23T16:04:39.399Z,95874.48
2018-11-23T16:07:00.236Z,95878.16
2018-11-23T16:09:26.975Z,95872.28
2018-11-23T16:11:53.667Z,95884.03
2018-11-23T16:14:20.419Z,95885.52
2018-11-23T16:16:47.072Z,95889.82
2018-11-23T16:19:13.714Z,95891.70
2018-11-23T16:21:40.363Z,95885.41
2018-11-23T16:24:07.109Z,95889.72
2018-11-23T16:26:33.757Z,95890.83
2018-11-23T16:29:00.439Z,95885.79
2018-11-23T16:31:27.086Z,95885.21
2018-11-23T16:33:53.724Z,95891.63
2018-11-23T16:36:20.392Z,95893.17
2018-11-23T16:38:47.038Z,95888.12
2018-11-23T16:41:13.686Z,95888.68
2018-11-23T16:43:40.331Z,95895.53
2018-11-23T16:46:06.990Z,95892.91
2018-11-23T16:48:33.780Z,95895.73
2018-11-23T16:51:00.416Z,95897.15
2018-11-23T16:53:27.060Z,95903.10
2018-11-23T16:55:53.708Z,95902.19
2018-11-23T16:58:20.384Z,95903.38
2018-11-23T17:00:47.021Z,95908.63
2018-11-23T17:03:13.682Z,95907.28
2018-11-23T17:05:40.328Z,95908.78
2018-11-23T17:08:06.977Z,95906.30
2018-11-23T17:10:33.674Z,95905.66
2018-11-23T17:13:00.342Z,95894.94
2018-11-23T17:15:27.100Z,95901.72
2018-11-23T17:17:53.746Z,95909.84
2018-11-23T17:20:20.385Z,95909.48
2018-11-23T17:22:47.087Z,95907.45
2018-11-23T17:25:13.728Z,95902.77
2018-11-23T17:27:40.383Z,95898.75
2018-11-23T17:30:07.026Z,95907.70
2018-11-23T17:32:33.680Z,95911.63
2018-11-23T17:35:00.377Z,95907.09
2018-11-23T17:37:27.050Z,95909.25
2018-11-23T17:39:53.705Z,95915.95
2018-11-23T17:42:20.372Z,95909.90
2018-11-23T17:44:47.014Z,95917.51
2018-11-23T17:47:13.677Z,95920.67
2018-11-23T17:49:40.325Z,95917.51
2018-11-23T17:52:06.973Z,95914.97
2018-11-23T17:54:33.673Z,95915.83
2018-11-23T17:57:00.319Z,95914.19
2018-11-23T17:59:26.966Z,95915.98
2018-11-23T18:01:53.616Z,95921.81
2018-11-23T18:04:20.261Z,95922.19
2018-11-23T18:06:46.953Z,95923.73
2018-11-23T18:09:13.635Z,95916.01
2018-11-23T18:11:40.279Z,95925.50
2018-11-23T18:14:06.932Z,95929.56
2018-11-23T18:16:33.576Z,95927.78
2018-11-23T18:19:00.272Z,95922.61
2018-11-23T18:21:27.029Z,95920.31
2018-11-23T18:23:53.681Z,95922.72
2018-11-23T18:26:20.315Z,95922.93
2018-11-23T18:28:46.968Z,95926.98
2018-11-23T18:31:13.605Z,95921.68
2018-11-23T18:33:40.251Z,95913.34
2018-11-23T18:36:06.895Z,95918.44
2018-11-23T18:38:33.559Z,95922.46
2018-11-23T18:41:00.208Z,95919.55
2018-11-23T18:43:26.866Z,95925.14
2018-11-23T18:45:53.510Z,95921.72
2018-11-23T18:48:20.157Z,95923.12
2018-11-23T18:50:46.787Z,95922.73
2018-11-23T18:53:13.529Z,95914.13
2018-11-23T18:55:40.166Z,95920.35
2018-11-23T18:58:06.800Z,95916.41
2018-11-23T19:00:35.504Z,95917.31
2018-11-23T19:03:02.158Z,95917.56
2018-11-23T19:05:28.809Z,95917.56
2018-11-23T19:07:55.453Z,95917.69
2018-11-23T19:10:22.088Z,95920.35
2018-11-23T19:12:48.736Z,95915.75
2018-11-23T19:15:15.380Z,95913.83
2018-11-23T19:17:42.014Z,95917.30
2018-11-23T19:20:08.657Z,95916.05
2018-11-23T19:22:35.335Z,95918.72
2018-11-23T19:25:01.979Z,95922.77
2018-11-23T19:27:28.676Z,95919.50
2018-11-23T19:29:55.305Z,95917.84
2018-11-23T19:32:21.947Z,95920.13
2018-11-23T19:34:48.589Z,95921.92
2018-11-23T19:37:15.239Z,95919.03
2018-11-23T19:39:41.872Z,95923.31
2018-11-23T19:42:08.517Z,95930.17
2018-11-23T19:44:35.162Z,95922.06
2018-11-23T19:47:01.816Z,95924.85
2018-11-23T19:49:28.459Z,95931.08
2018-11-23T19:51:55.113Z,95932.45
2018-11-23T19:54:21.753Z,95932.60
2018-11-23T19:56:48.441Z,95933.13
2018-11-23T19:59:15.092Z,95930.56
2018-11-23T20:01:41.752Z,95934.75
2018-11-23T20:04:08.404Z,95936.14
2018-11-23T20:06:38.575Z,95935.66
2018-11-23T20:09:01.697Z,95934.00
2018-11-23T20:11:28.353Z,95931.58
2018-11-23T20:13:54.999Z,95936.41
2018-11-23T20:16:21.641Z,95930.08
2018-11-23T20:18:48.308Z,95927.92
2018-11-23T20:21:14.949Z,95930.35
2018-11-23T20:23:41.611Z,95929.08
2018-11-23T20:26:08.272Z,95927.19
2018-11-23T20:28:34.932Z,95933.14
2018-11-23T20:31:01.576Z,95930.60
2018-11-23T20:33:28.228Z,95936.27
2018-11-23T20:35:54.875Z,95928.56
2018-11-23T20:38:21.575Z,95935.15
2018-11-23T20:40:48.277Z,95931.86
2018-11-23T20:43:14.906Z,95932.25
2018-11-23T20:45:41.601Z,95928.20
2018-11-23T20:48:08.248Z,95932.75
2018-11-23T20:50:34.939Z,95938.59
2018-11-23T20:53:01.580Z,95933.91
2018-11-23T20:55:28.228Z,95938.20
2018-11-23T20:57:54.893Z,95942.38
2018-11-23T21:00:21.537Z,95945.05
2018-11-23T21:02:48.184Z,95941.27
2018-11-23T21:05:14.836Z,95947.22
2018-11-23T21:07:41.534Z,95943.66
2018-11-23T21:10:08.187Z,95944.94
2018-11-23T21:12:34.831Z,95945.83
2018-11-23T21:15:01.477Z,95944.94
2018-11-23T21:17:28.103Z,95948.48
2018-11-23T21:19:54.799Z,95947.60
2018-11-23T21:22:21.437Z,95947.20
2018-11-23T21:24:48.072Z,95946.21
2018-11-23T21:27:14.736Z,95942.16
2018-11-23T21:29:41.367Z,95950.01
2018-11-23T21:32:08.025Z,95942.80
2018-11-23T21:34:36.118Z,95942.28
2018-11-23T21:37:01.334Z,95944.30
2018-11-23T21:39:27.976Z,95941.92
2018-11-23T21:41:54.625Z,95936.34
2018-11-23T21:44:21.275Z,95939.12
2018-11-23T21:46:47.915Z,95935.60
2018-11-23T21:49:14.574Z,95938.14
2018-11-23T21:51:41.208Z,95932.43
2018-11-23T21:54:07.856Z,95938.41
2018-11-23T21:56:34.546Z,95932.82
2018-11-23T21:59:01.200Z,95938.19
2018-11-23T22:01:27.844Z,95937.81
2018-11-23T22:03:54.486Z,95946.41
2018-11-23T22:06:21.185Z,95938.17
2018-11-23T22:08:47.832Z,95937.53
2018-11-23T22:11:14.469Z,95934.64
2018-11-23T22:13:41.115Z,95929.03
2018-11-23T22:16:07.753Z,95936.13
2018-11-23T22:18:34.384Z,95934.86
2018-11-23T22:21:01.086Z,95929.01
2018-11-23T22:23:27.731Z,95930.16
2018-11-23T22:25:54.398Z,95933.20
2018-11-23T22:28:21.028Z,95929.53
2018-11-23T22:30:47.758Z,95929.90
2018-11-23T22:33:14.408Z,95925.34
2018-11-23T22:35:41.605Z,95925.61
2018-11-23T22:38:07.705Z,95928.64
2018-11-23T22:40:34.357Z,95923.47
2018-11-23T22:43:01.042Z,95923.09
2018-11-23T22:45:27.726Z,95922.70
2018-11-23T22:47:54.372Z,95922.94
2018-11-23T22:50:21.002Z,95923.84
2018-11-23T22:52:47.849Z,95930.56
2018-11-23T22:55:14.300Z,95925.34
2018-11-23T22:57:40.922Z,95927.62
2018-11-23T23:00:07.613Z,95927.23
2018-11-23T23:02:34.247Z,95926.48
2018-11-23T23:05:00.896Z,95929.94
2018-11-23T23:07:27.537Z,95930.68
2018-11-23T23:09:54.180Z,95931.06
2018-11-23T23:12:20.817Z,95933.59
2018-11-23T23:14:47.503Z,95932.20
2018-11-23T23:17:14.139Z,95931.58
2018-11-23T23:19:40.800Z,95930.45
2018-11-23T23:22:07.463Z,95928.54
2018-11-23T23:24:34.109Z,95927.77
2018-11-23T23:27:00.853Z,95928.92
2018-11-23T23:29:27.555Z,95926.90
2018-11-23T23:31:54.235Z,95928.30
2018-11-23T23:34:20.832Z,95930.45
2018-11-23T23:36:47.532Z,95932.47
2018-11-23T23:39:14.173Z,95932.22
2018-11-23T23:41:40.806Z,95934.38
2018-11-23T23:44:07.459Z,95933.75
2018-11-23T23:46:34.097Z,95930.34
2018-11-23T23:49:00.754Z,95929.58
2018-11-23T23:51:27.445Z,95931.74
2018-11-23T23:53:54.096Z,95931.87
2018-11-23T23:56:20.793Z,95930.98
2018-11-23T23:58:47.433Z,95936.56
